Time;durP1;ratioP1;P1;durP2;ratioP2;P2;SDS_P1;SDS_P2;PMS_P1;PMS_P2;Temp;Humidity;BMP_temperature;BMP_pressure;BME280_temperature;BME280_humidity;BME280_pressure;Samples;Min_cycle;Max_cycle;Signal;HPM_P1;HPM_P2
2022/07/21 00:01:53;;;;;;;6.83;5.30;;;;;;;26.49;37.61;101425.84;5020168;27;97298;-51
2022/07/21 00:04:19;;;;;;;7.20;4.83;;;;;;;26.49;37.24;101397.59;5021092;27;96798;-50
2022/07/21 00:06:45;;;;;;;5.87;5.47;;;;;;;26.52;37.35;101367.44;5022218;27;96660;-49
2022/07/21 00:09:12;;;;;;;5.77;5.30;;;;;;;26.56;37.16;101401.66;5024074;27;96784;-49
2022/07/21 00:11:38;;;;;;;6.07;5.47;;;;;;;26.52;37.41;101449.28;5022782;27;101630;-50
2022/07/21 00:14:06;;;;;;;8.60;6.80;;;;;;;26.58;38.52;101450.53;5019821;27;97027;-50
2022/07/21 00:16:32;;;;;;;6.47;5.60;;;;;;;26.45;37.90;101453.00;5020708;27;97069;-51
2022/07/21 00:18:59;;;;;;;6.03;5.40;;;;;;;26.45;38.00;101438.88;5023604;27;97279;-48
2022/07/21 00:21:24;;;;;;;6.60;4.50;;;;;;;26.48;37.86;101423.56;5023135;27;97117;-49
2022/07/21 00:23:49;;;;;;;7.37;5.70;;;;;;;26.47;37.95;101410.81;5022532;27;97360;-51
2022/07/21 00:26:15;;;;;;;5.17;4.70;;;;;;;26.48;38.05;101398.94;5021258;27;96805;-48
2022/07/21 00:28:40;;;;;;;5.17;4.67;;;;;;;26.47;37.99;101383.31;5023251;27;97355;-49
2022/07/21 00:31:06;;;;;;;4.97;4.57;;;;;;;26.44;38.01;101361.94;5021577;27;97149;-49
2022/07/21 00:33:31;;;;;;;6.03;4.87;;;;;;;26.42;38.06;101350.47;5023642;27;96913;-49
2022/07/21 00:35:56;;;;;;;6.17;4.67;;;;;;;26.40;38.38;101361.63;5020707;27;96972;-49
2022/07/21 00:38:22;;;;;;;5.33;4.83;;;;;;;26.40;38.50;101369.31;5023586;27;97146;-49
2022/07/21 00:40:47;;;;;;;7.67;4.87;;;;;;;26.39;38.57;101362.94;5019734;27;97133;-50
2022/07/21 00:43:12;;;;;;;4.80;4.37;;;;;;;26.40;38.74;101358.03;5019894;27;96709;-50
2022/07/21 00:45:38;;;;;;;12.43;4.93;;;;;;;26.39;38.94;101362.94;5019377;27;97049;-49
2022/07/21 00:48:04;;;;;;;5.67;4.90;;;;;;;26.38;38.80;101363.53;5021792;27;96741;-49
2022/07/21 00:50:31;;;;;;;4.83;4.40;;;;;;;26.39;38.79;101337.53;5023389;27;96970;-49
2022/07/21 00:52:56;;;;;;;4.43;3.90;;;;;;;26.35;39.20;101347.75;5016361;27;96954;-50
2022/07/21 00:55:22;;;;;;;4.60;4.20;;;;;;;26.35;39.03;101348.50;5022598;27;96567;-53
2022/07/21 00:57:49;;;;;;;7.60;4.33;;;;;;;26.35;39.05;101337.22;5023246;27;97385;-49
2022/07/21 01:00:22;;;;;;;5.93;4.47;;;;;;;26.33;39.50;101333.50;5019703;27;97564;-49
2022/07/21 01:02:48;;;;;;;5.40;4.40;;;;;;;26.29;39.22;101321.91;5015324;27;96816;-49
2022/07/21 01:05:15;;;;;;;4.27;3.80;;;;;;;26.28;39.63;101328.84;5018665;27;96949;-49
2022/07/21 01:07:42;;;;;;;5.50;3.93;;;;;;;26.26;39.53;101325.88;5022439;27;97011;-49
2022/07/21 01:10:10;;;;;;;3.80;3.47;;;;;;;26.25;39.53;101324.41;5020162;27;97328;-49
2022/07/21 01:12:36;;;;;;;3.67;3.37;;;;;;;26.24;39.64;101340.59;5025617;27;98489;-48
2022/07/21 01:15:03;;;;;;;8.10;3.93;;;;;;;26.23;39.98;101353.22;5021592;27;97044;-48
2022/07/21 01:17:28;;;;;;;4.13;3.73;;;;;;;26.23;39.87;101367.31;5023678;27;97380;-51
2022/07/21 01:19:54;;;;;;;6.93;3.97;;;;;;;26.25;39.85;101361.84;5026053;27;97046;-48
2022/07/21 01:22:19;;;;;;;4.13;3.73;;;;;;;26.26;39.97;101360.50;5022349;27;96877;-50
2022/07/21 01:24:45;;;;;;;3.60;3.30;;;;;;;26.27;40.12;101364.06;5026114;27;97022;-49
2022/07/21 01:27:10;;;;;;;4.97;3.77;;;;;;;26.27;40.18;101367.63;5020222;27;97458;-50
2022/07/21 01:29:36;;;;;;;5.50;3.80;;;;;;;26.18;40.12;101367.56;5026059;27;97225;-49
2022/07/21 01:32:03;;;;;;;5.00;4.23;;;;;;;26.14;40.34;101370.09;5023680;27;97072;-50
2022/07/21 01:34:29;;;;;;;5.37;4.40;;;;;;;26.14;40.40;101381.38;5024219;27;97257;-50
2022/07/21 01:36:54;;;;;;;4.20;3.80;;;;;;;26.15;40.72;101383.59;5025078;27;97035;-49
2022/07/21 01:42:03;;;;;;;3.90;3.60;;;;;;;26.22;40.58;101390.47;5022746;27;96757;-50
2022/07/21 01:44:29;;;;;;;6.60;4.20;;;;;;;26.22;40.63;101384.81;5026054;27;97491;-49
2022/07/21 01:46:55;;;;;;;7.07;5.00;;;;;;;26.19;40.91;101388.81;5023383;27;97202;-49
2022/07/21 01:49:20;;;;;;;4.40;4.00;;;;;;;26.16;40.85;101393.56;5025134;27;97585;-49
2022/07/21 01:51:46;;;;;;;9.60;3.70;;;;;;;26.14;41.09;101393.41;5024458;27;96991;-49
2022/07/21 01:54:12;;;;;;;6.70;4.67;;;;;;;26.07;41.12;101397.03;5023903;27;97045;-49
2022/07/21 01:56:38;;;;;;;4.53;4.13;;;;;;;26.06;41.06;101397.63;5025581;27;97340;-49
2022/07/21 01:59:05;;;;;;;4.37;3.93;;;;;;;26.05;41.28;101394.06;5023712;27;97263;-49
2022/07/21 02:01:31;;;;;;;5.33;4.33;;;;;;;26.03;41.59;101391.81;5024929;27;96899;-49
2022/07/21 02:03:59;;;;;;;5.07;3.97;;;;;;;26.03;41.42;101380.53;5023418;27;97268;-49
2022/07/21 02:06:24;;;;;;;5.73;4.23;;;;;;;26.03;41.59;101374.91;5024183;27;97517;-50
2022/07/21 02:08:50;;;;;;;6.80;4.47;;;;;;;26.05;41.67;101360.22;5025364;27;98589;-48
2022/07/21 02:11:16;;;;;;;4.93;4.37;;;;;;;26.07;41.70;101363.19;5021720;27;96715;-49
2022/07/21 02:13:42;;;;;;;4.63;4.20;;;;;;;26.01;41.59;101365.53;5025334;27;97009;-49
2022/07/21 02:16:08;;;;;;;5.50;4.83;;;;;;;25.98;41.65;101367.44;5021649;27;97556;-49
2022/07/21 02:18:34;;;;;;;5.30;4.60;;;;;;;25.98;41.91;101372.31;5023840;27;97252;-48
2022/07/21 02:20:59;;;;;;;10.10;5.10;;;;;;;26.00;41.91;101359.13;5021301;27;96954;-48
2022/07/21 02:23:26;;;;;;;6.30;5.00;;;;;;;25.81;42.27;101313.91;5026080;27;97356;-49
2022/07/21 02:25:52;;;;;;;6.27;5.17;;;;;;;25.64;42.59;101287.81;5021957;27;98540;-49
2022/07/21 02:28:21;;;;;;;7.73;5.03;;;;;;;25.58;42.51;101293.72;5025837;27;100603;-49
2022/07/21 02:30:47;;;;;;;11.13;5.00;;;;;;;25.60;42.69;101302.31;5024860;27;97095;-50
2022/07/21 02:33:13;;;;;;;5.23;4.70;;;;;;;25.57;42.91;101294.28;5025173;27;96763;-49
2022/07/21 02:35:40;;;;;;;4.83;4.40;;;;;;;25.49;43.26;101288.03;5023155;27;97525;-50
2022/07/21 02:38:05;;;;;;;4.33;4.00;;;;;;;25.54;43.21;101312.34;5023337;27;97377;-49
2022/07/21 02:40:31;;;;;;;6.20;4.57;;;;;;;25.63;43.04;101303.22;5024957;27;97124;-49
2022/07/21 02:42:57;;;;;;;4.90;4.50;;;;;;;25.59;43.28;101288.81;5024447;27;97141;-50
2022/07/21 02:45:22;;;;;;;4.60;4.10;;;;;;;25.54;43.18;101315.94;5025267;27;96893;-49
2022/07/21 02:47:50;;;;;;;5.80;4.77;;;;;;;25.57;43.28;101333.75;5024765;27;97071;-50
2022/07/21 02:50:17;;;;;;;5.40;4.67;;;;;;;25.49;43.45;101324.66;5022258;27;97190;-50
2022/07/21 02:52:42;;;;;;;5.63;4.20;;;;;;;25.46;43.68;101311.72;5022933;27;96995;-50
2022/07/21 02:55:08;;;;;;;6.80;5.10;;;;;;;25.44;43.81;101295.41;5020737;27;97856;-50
2022/07/21 02:57:34;;;;;;;4.53;4.13;;;;;;;25.39;44.23;101289.97;5023514;27;97234;-50
2022/07/21 02:59:59;;;;;;;6.97;4.60;;;;;;;25.31;44.35;101276.72;5022403;27;96855;-49
2022/07/21 03:02:25;;;;;;;7.40;5.40;;;;;;;25.22;44.94;101257.69;5021855;27;97038;-49
2022/07/21 03:04:50;;;;;;;4.87;4.30;;;;;;;25.18;45.02;101265.78;5025002;27;97305;-50
2022/07/21 03:07:15;;;;;;;5.20;4.70;;;;;;;25.25;45.19;101287.50;5019863;27;97127;-49
2022/07/21 03:09:41;;;;;;;7.53;4.60;;;;;;;25.30;45.54;101297.03;5024890;27;97184;-50
2022/07/21 03:12:07;;;;;;;4.50;4.10;;;;;;;25.34;45.55;101302.25;5025307;27;96969;-50
2022/07/21 03:14:32;;;;;;;6.93;4.83;;;;;;;25.33;45.97;101314.84;5020649;27;97298;-49
2022/07/21 03:16:58;;;;;;;5.50;5.00;;;;;;;25.29;46.10;101324.44;5022606;27;97319;-50
2022/07/21 03:19:23;;;;;;;5.30;4.00;;;;;;;25.28;46.30;101328.59;5025511;27;97246;-50
2022/07/21 03:21:49;;;;;;;6.23;4.77;;;;;;;25.27;46.53;101335.56;5024289;27;97529;-50
2022/07/21 03:24:14;;;;;;;4.33;3.83;;;;;;;25.27;46.36;101337.63;5013366;27;96906;-48
2022/07/21 03:26:39;;;;;;;4.83;4.00;;;;;;;25.27;46.60;101332.00;5015322;27;98602;-49
2022/07/21 03:29:05;;;;;;;5.20;4.13;;;;;;;25.26;46.69;101322.06;5015610;27;97851;-49
2022/07/21 03:31:30;;;;;;;5.97;4.10;;;;;;;25.28;46.94;101319.41;5020017;27;96905;-49
2022/07/21 03:33:56;;;;;;;6.60;5.23;;;;;;;25.27;46.76;101310.19;5017643;27;96921;-50
2022/07/21 03:36:22;;;;;;;4.37;3.97;;;;;;;25.21;47.37;101292.81;5016087;27;96943;-50
2022/07/21 03:38:49;;;;;;;4.97;4.37;;;;;;;25.20;47.56;101285.69;5022627;27;96746;-49
2022/07/21 03:41:15;;;;;;;4.80;4.40;;;;;;;25.16;47.63;101299.41;5021606;28;97002;-50
2022/07/21 03:43:40;;;;;;;7.43;4.93;;;;;;;25.13;47.73;101308.28;5012477;27;97414;-50
2022/07/21 03:46:06;;;;;;;5.67;5.10;;;;;;;25.07;48.00;101305.75;5023418;27;98306;-48
2022/07/21 03:48:31;;;;;;;5.00;4.60;;;;;;;25.01;48.18;101304.50;5021960;27;97137;-50
2022/07/21 03:50:56;;;;;;;6.37;5.20;;;;;;;24.94;48.62;101294.03;5021414;27;96921;-48
2022/07/21 03:53:22;;;;;;;5.33;4.27;;;;;;;24.92;48.65;101268.53;5023669;27;99755;-50
2022/07/21 03:55:47;;;;;;;6.17;4.60;;;;;;;24.85;48.62;101261.66;5020402;27;97503;-49
2022/07/21 03:58:13;;;;;;;5.20;4.70;;;;;;;24.82;48.97;101274.06;5024283;27;97233;-50
2022/07/21 04:00:41;;;;;;;6.00;5.13;;;;;;;24.81;48.85;101305.63;5024436;27;97144;-50
2022/07/21 04:03:07;;;;;;;6.47;5.07;;;;;;;24.76;49.14;101307.34;5018744;27;96901;-51
2022/07/21 04:05:32;;;;;;;6.33;5.20;;;;;;;24.76;49.20;101301.72;5017430;27;96946;-50
2022/07/21 04:07:58;;;;;;;5.23;4.73;;;;;;;24.72;49.40;101297.78;5017011;27;97406;-50
2022/07/21 04:10:27;;;;;;;5.23;4.73;;;;;;;24.71;49.21;101301.91;5020765;27;97080;-49
2022/07/21 04:12:54;;;;;;;5.90;5.17;;;;;;;24.72;49.32;101306.97;5022772;27;97391;-49
2022/07/21 04:15:20;;;;;;;6.47;5.07;;;;;;;24.73;49.42;101294.38;5011696;27;97348;-50
2022/07/21 04:17:46;;;;;;;5.70;5.17;;;;;;;24.68;49.58;101286.19;5020222;27;97096;-50
2022/07/21 04:20:13;;;;;;;5.37;4.87;;;;;;;24.62;49.70;101289.22;5018601;27;97176;-50
2022/07/21 04:22:40;;;;;;;5.20;4.63;;;;;;;24.58;49.75;101280.44;5024095;27;98028;-50
2022/07/21 04:25:06;;;;;;;5.83;4.73;;;;;;;24.42;50.16;101262.94;5023087;27;97421;-50
2022/07/21 04:27:33;;;;;;;7.30;5.20;;;;;;;24.25;50.64;101248.09;5021190;27;97009;-52
2022/07/21 04:29:58;;;;;;;5.80;5.30;;;;;;;24.11;51.20;101246.91;5020746;27;97356;-49
2022/07/21 04:32:24;;;;;;;7.83;5.33;;;;;;;24.02;51.41;101251.06;5020065;27;97185;-55
2022/07/21 04:34:49;;;;;;;7.70;4.97;;;;;;;24.05;51.20;101266.06;5023393;27;97104;-50
2022/07/21 04:37:15;;;;;;;7.27;4.77;;;;;;;24.13;51.06;101280.81;5019450;27;96961;-49
2022/07/21 04:39:40;;;;;;;6.53;5.10;;;;;;;24.20;51.10;101294.06;5020539;27;97789;-50
2022/07/21 04:42:06;;;;;;;5.70;4.67;;;;;;;24.27;51.09;101288.38;5020787;27;96905;-50
2022/07/21 04:44:31;;;;;;;6.47;5.07;;;;;;;24.28;51.25;101289.88;5019338;27;97164;-50
2022/07/21 04:46:57;;;;;;;5.23;4.83;;;;;;;24.30;51.11;101297.75;5022413;27;96903;-50
2022/07/21 04:49:23;;;;;;;4.93;4.50;;;;;;;24.32;51.18;101311.97;5023201;27;97182;-49
2022/07/21 04:51:48;;;;;;;6.07;5.20;;;;;;;24.34;51.12;101326.22;5021350;27;97468;-56
2022/07/21 04:54:13;;;;;;;8.60;5.00;;;;;;;24.35;51.49;101336.16;5018474;28;98500;-49
2022/07/21 04:56:41;;;;;;;5.70;5.23;;;;;;;24.36;51.47;101337.63;5022923;27;97353;-49
2022/07/21 04:59:06;;;;;;;8.40;5.70;;;;;;;24.36;51.31;101349.66;5022391;27;97380;-49
2022/07/21 05:01:32;;;;;;;5.80;5.20;;;;;;;24.34;51.67;101357.91;5023163;27;97255;-50
2022/07/21 05:03:57;;;;;;;6.20;5.33;;;;;;;24.33;51.70;101364.13;5021954;27;97258;-49
2022/07/21 05:06:22;;;;;;;6.07;5.53;;;;;;;24.33;51.70;101370.47;5019178;27;97440;-49
2022/07/21 05:08:48;;;;;;;5.60;5.10;;;;;;;24.34;51.88;101371.22;5022807;27;96833;-49
2022/07/21 05:11:13;;;;;;;5.90;4.30;;;;;;;24.34;51.82;101376.84;4999928;27;97198;-49
2022/07/21 05:13:39;;;;;;;5.80;5.30;;;;;;;24.33;52.05;101386.63;4995869;27;97341;-52
2022/07/21 05:16:04;;;;;;;5.60;5.10;;;;;;;24.33;52.21;101378.91;5005168;27;96997;-49
2022/07/21 05:18:30;;;;;;;5.97;5.40;;;;;;;24.32;52.10;101379.50;5012570;27;96872;-49
2022/07/21 05:20:55;;;;;;;7.03;4.80;;;;;;;24.32;52.33;101393.56;5016353;27;97260;-51
2022/07/21 05:23:20;;;;;;;7.63;4.93;;;;;;;24.31;52.14;101401.22;5019932;27;97255;-49
2022/07/21 05:25:46;;;;;;;5.47;4.93;;;;;;;24.30;52.25;101408.19;5018182;27;97151;-49
2022/07/21 05:28:11;;;;;;;7.53;5.43;;;;;;;24.26;52.49;101398.66;5022725;27;97331;-49
2022/07/21 05:30:36;;;;;;;5.70;5.10;;;;;;;24.24;52.51;101402.03;5013094;27;96854;-49
2022/07/21 05:33:02;;;;;;;6.17;5.13;;;;;;;24.25;52.79;101399.97;5017967;27;97167;-49
2022/07/21 05:35:27;;;;;;;6.87;5.37;;;;;;;24.24;52.74;101402.03;5022417;27;97069;-49
2022/07/21 05:37:53;;;;;;;6.27;5.40;;;;;;;24.25;52.55;101397.91;5022860;27;96981;-49
2022/07/21 05:40:18;;;;;;;7.10;6.40;;;;;;;24.26;52.82;101393.78;5022357;27;97192;-50
2022/07/21 05:42:43;;;;;;;6.50;5.90;;;;;;;24.27;52.84;101386.81;5014124;27;100011;-50
2022/07/21 05:45:09;;;;;;;5.43;5.00;;;;;;;24.27;53.00;101388.88;5017898;27;97553;-49
2022/07/21 05:47:35;;;;;;;6.33;5.73;;;;;;;24.27;52.71;101366.38;5020095;27;97309;-50
2022/07/21 05:50:01;;;;;;;6.10;5.07;;;;;;;24.28;52.67;101365.06;5012976;27;97353;-49
2022/07/21 05:52:26;;;;;;;6.50;5.30;;;;;;;24.29;53.10;101372.19;4998269;27;97050;-49
2022/07/21 05:54:52;;;;;;;7.40;5.30;;;;;;;24.31;53.08;101389.25;4991918;27;97077;-49
2022/07/21 05:57:18;;;;;;;11.00;5.67;;;;;;;24.31;52.94;101383.63;4995350;27;96762;-49
2022/07/21 05:59:46;;;;;;;6.03;5.13;;;;;;;24.32;53.25;101377.44;5026501;27;97202;-49
2022/07/21 06:02:12;;;;;;;6.53;5.47;;;;;;;24.34;53.31;101379.66;5024610;27;97293;-49
2022/07/21 06:04:37;;;;;;;6.40;5.80;;;;;;;24.36;53.39;101382.66;5026682;27;96879;-50
2022/07/21 06:07:03;;;;;;;7.77;5.90;;;;;;;24.37;53.30;101373.66;5025693;27;96922;-49
2022/07/21 06:09:28;;;;;;;6.23;5.67;;;;;;;24.38;53.43;101371.56;5025804;27;97009;-49
2022/07/21 06:11:54;;;;;;;6.07;4.80;;;;;;;24.40;53.40;101372.50;4989187;27;97147;-50
2022/07/21 06:14:20;;;;;;;5.20;4.77;;;;;;;24.46;53.52;101389.16;5024657;27;96917;-49
2022/07/21 06:16:45;;;;;;;6.07;4.97;;;;;;;24.51;53.67;101402.25;4996531;27;97548;-49
2022/07/21 06:19:11;;;;;;;6.20;5.17;;;;;;;24.56;53.64;101413.28;5025660;27;100521;-49
2022/07/21 06:21:36;;;;;;;4.67;4.27;;;;;;;24.60;53.69;101421.31;5025430;27;97219;-49
2022/07/21 06:24:01;;;;;;;7.13;5.60;;;;;;;24.64;53.44;101420.94;5024575;27;101137;-49
2022/07/21 06:26:27;;;;;;;4.70;4.30;;;;;;;24.67;53.52;101422.59;4997156;27;97358;-50
2022/07/21 06:28:53;;;;;;;5.40;4.90;;;;;;;24.71;53.49;101434.94;4999912;27;97295;-49
2022/07/21 06:31:18;;;;;;;4.93;4.53;;;;;;;24.72;53.09;101433.63;5022070;27;97493;-48
2022/07/21 06:33:43;;;;;;;4.57;4.17;;;;;;;24.71;53.06;101446.19;5024642;27;97080;-48
2022/07/21 06:36:09;;;;;;;5.10;3.87;;;;;;;24.72;53.26;101456.16;5025826;27;97380;-49
2022/07/21 06:38:35;;;;;;;4.97;3.83;;;;;;;24.75;53.12;101454.28;5026405;27;96915;-49
2022/07/21 06:41:00;;;;;;;5.97;4.50;;;;;;;24.76;52.87;101452.97;5024755;27;97178;-49
2022/07/21 06:43:26;;;;;;;3.53;3.13;;;;;;;24.81;53.07;101458.38;5025019;27;96774;-48
2022/07/21 06:45:51;;;;;;;3.37;3.17;;;;;;;24.79;52.84;101457.44;5024440;27;97367;-48
2022/07/21 06:48:17;;;;;;;4.23;3.80;;;;;;;24.77;52.64;101451.66;5021941;27;97084;-48
2022/07/21 06:50:42;;;;;;;3.67;3.37;;;;;;;24.79;52.92;101461.00;5023461;27;97302;-48
2022/07/21 06:53:08;;;;;;;6.33;3.60;;;;;;;24.80;52.59;101468.13;5021517;27;97116;-49
2022/07/21 06:55:34;;;;;;;3.30;3.00;;;;;;;24.82;52.56;101470.38;5023543;27;97465;-48
2022/07/21 06:58:14;;;;;;;5.67;3.50;;;;;;;24.82;52.97;101471.13;5023557;27;96777;-48
2022/07/21 07:00:40;;;;;;;3.57;3.27;;;;;;;24.76;52.51;101479.03;5021988;27;100159;-49
2022/07/21 07:03:05;;;;;;;3.70;3.40;;;;;;;24.77;52.58;101479.81;5026447;27;97121;-48
2022/07/21 07:05:31;;;;;;;3.30;3.00;;;;;;;24.73;52.71;101480.16;5016813;27;96604;-48
2022/07/21 07:07:56;;;;;;;3.53;3.07;;;;;;;24.76;52.79;101473.41;5023382;27;97363;-49
2022/07/21 07:10:22;;;;;;;4.50;3.53;;;;;;;24.82;52.56;101464.72;5024800;27;97041;-48
2022/07/21 07:12:47;;;;;;;3.17;2.97;;;;;;;24.86;52.47;101470.72;5024929;27;96864;-48
2022/07/21 07:15:13;;;;;;;3.17;2.97;;;;;;;24.92;52.62;101466.34;5020831;27;96960;-49
2022/07/21 07:17:38;;;;;;;3.03;2.60;;;;;;;24.99;52.53;101470.44;5024008;27;96720;-48
2022/07/21 07:20:06;;;;;;;3.63;3.20;;;;;;;24.98;52.63;101475.34;5023172;27;97568;-49
2022/07/21 07:22:32;;;;;;;3.70;3.40;;;;;;;24.98;52.35;101469.72;5023986;27;97224;-49
2022/07/21 07:24:57;;;;;;;4.90;3.23;;;;;;;25.01;52.60;101465.72;5018534;27;97006;-48
2022/07/21 07:27:22;;;;;;;3.27;2.97;;;;;;;25.05;52.40;101462.53;5022477;27;97444;-48
2022/07/21 07:29:48;;;;;;;3.43;2.50;;;;;;;25.05;52.21;101471.69;5021214;27;100959;-48
2022/07/21 07:32:13;;;;;;;2.70;2.50;;;;;;;25.07;52.00;101483.16;5025536;27;97189;-48
2022/07/21 07:34:38;;;;;;;3.17;2.87;;;;;;;25.14;52.22;101484.41;5022214;27;96899;-48
2022/07/21 07:37:04;;;;;;;3.27;2.73;;;;;;;25.17;52.05;101478.38;5021769;27;97521;-48
2022/07/21 07:39:29;;;;;;;4.10;2.87;;;;;;;25.18;51.93;101477.03;5024576;27;97480;-49
2022/07/21 07:41:55;;;;;;;2.40;2.17;;;;;;;25.17;51.67;101472.75;5020564;27;97194;-49
2022/07/21 07:44:21;;;;;;;2.67;2.47;;;;;;;25.23;51.78;101472.50;5022207;27;97194;-49
2022/07/21 07:46:46;;;;;;;3.93;3.23;;;;;;;25.34;51.43;101471.31;5020019;27;97348;-48
2022/07/21 07:49:11;;;;;;;2.60;2.40;;;;;;;25.44;51.33;101472.16;5025490;27;97523;-49
2022/07/21 07:51:37;;;;;;;3.23;2.37;;;;;;;25.52;50.92;101467.94;5022840;27;96910;-49
2022/07/21 07:54:03;;;;;;;3.07;2.80;;;;;;;25.61;51.11;101472.19;5020906;27;97005;-49
2022/07/21 07:56:29;;;;;;;2.53;2.40;;;;;;;25.65;50.66;101481.72;5021209;27;97584;-49
2022/07/21 07:58:54;;;;;;;3.17;2.73;;;;;;;25.65;50.99;101480.97;5023337;27;96809;-48
2022/07/21 08:01:20;;;;;;;2.43;2.23;;;;;;;25.66;50.71;101476.84;5020217;27;96898;-48
2022/07/21 08:03:45;;;;;;;3.00;2.57;;;;;;;25.68;50.54;101474.94;5024458;27;96852;-49
2022/07/21 08:06:10;;;;;;;3.03;2.80;;;;;;;25.69;50.51;101470.78;5018759;27;97419;-49
2022/07/21 08:08:36;;;;;;;3.80;2.67;;;;;;;25.74;50.73;101478.25;5023269;27;97227;-48
2022/07/21 08:11:02;;;;;;;3.10;2.10;;;;;;;25.79;50.59;101473.69;5022707;27;96779;-49
2022/07/21 08:13:27;;;;;;;3.00;2.70;;;;;;;25.78;50.69;101487.03;5023227;27;97245;-48
2022/07/21 08:15:53;;;;;;;2.87;2.67;;;;;;;25.79;50.60;101493.44;5016002;27;97585;-49
2022/07/21 08:18:19;;;;;;;4.00;2.73;;;;;;;25.77;50.91;101488.38;5023924;27;97177;-49
2022/07/21 08:20:45;;;;;;;4.57;2.90;;;;;;;25.76;51.29;101497.41;5022019;27;97030;-48
2022/07/21 08:23:11;;;;;;;4.83;2.90;;;;;;;25.76;51.49;101505.84;5024960;27;97393;-48
2022/07/21 08:25:37;;;;;;;2.43;2.23;;;;;;;25.71;51.10;101489.94;5018415;27;97911;-48
2022/07/21 08:28:03;;;;;;;2.63;2.13;;;;;;;25.64;51.07;101496.41;5019732;27;97273;-48
2022/07/21 08:30:28;;;;;;;2.00;1.90;;;;;;;25.58;51.28;101491.00;5022029;27;97349;-49
2022/07/21 08:32:53;;;;;;;2.40;2.20;;;;;;;25.58;51.30;101499.44;5023394;27;96965;-49
2022/07/21 08:35:19;;;;;;;3.37;2.30;;;;;;;25.58;51.11;101501.53;5022913;27;97430;-48
2022/07/21 08:37:53;;;;;;;2.50;2.33;;;;;;;25.62;51.60;101511.06;5022209;27;97253;-49
2022/07/21 08:40:23;;;;;;;2.27;1.67;;;;;;;25.65;51.10;101503.53;5019737;27;97713;-49
2022/07/21 08:42:48;;;;;;;2.40;2.20;;;;;;;25.74;51.18;101502.88;5022234;27;97119;-49
2022/07/21 08:45:14;;;;;;;3.53;1.93;;;;;;;25.83;51.03;101502.97;5021946;27;97961;-49
2022/07/21 08:47:40;;;;;;;2.20;2.00;;;;;;;25.90;51.08;101507.03;5023150;27;97210;-49
2022/07/21 08:50:07;;;;;;;1.63;1.53;;;;;;;26.02;50.97;101510.84;5023608;27;97199;-49
2022/07/21 08:52:33;;;;;;;1.87;1.77;;;;;;;26.06;51.20;101507.63;5021323;27;97183;-49
2022/07/21 08:54:59;;;;;;;2.13;2.03;;;;;;;26.04;51.29;101499.72;5023338;27;96899;-49
2022/07/21 08:57:24;;;;;;;4.07;2.10;;;;;;;26.12;51.19;101500.44;5021276;27;97044;-49
2022/07/21 08:59:49;;;;;;;2.03;1.90;;;;;;;26.16;51.02;101492.28;5019966;27;96895;-48
2022/07/21 09:02:33;;;;;;;2.10;2.00;;;;;;;26.21;51.44;101490.56;5020826;27;96950;-49
2022/07/21 09:04:59;;;;;;;1.50;1.43;;;;;;;26.24;51.09;101498.59;5018773;27;101267;-49
2022/07/21 09:07:25;;;;;;;1.83;1.73;;;;;;;26.31;51.22;101494.19;5021466;27;97452;-48
2022/07/21 09:09:56;;;;;;;2.03;1.90;;;;;;;26.35;51.30;101486.78;5022427;27;96944;-49
2022/07/21 09:12:22;;;;;;;2.07;1.70;;;;;;;26.34;51.24;101496.56;5017558;27;97823;-48
2022/07/21 09:14:48;;;;;;;2.33;1.57;;;;;;;26.33;51.28;101497.16;5014242;27;98224;-49
2022/07/21 09:17:17;;;;;;;2.83;1.57;;;;;;;26.31;51.18;101506.22;5021598;27;97295;-49
2022/07/21 09:19:45;;;;;;;3.13;1.50;;;;;;;26.26;50.91;101512.84;5023100;27;97101;-50
2022/07/21 09:22:18;;;;;;;1.50;1.40;;;;;;;26.15;50.74;101510.53;5021690;27;96687;-49
2022/07/21 09:24:51;;;;;;;1.57;1.47;;;;;;;26.12;51.45;101505.31;5019822;27;101937;-48
2022/07/21 09:27:21;;;;;;;1.33;1.23;;;;;;;26.13;50.89;101504.72;5020267;27;100236;-49
2022/07/21 09:29:53;;;;;;;1.07;1.07;;;;;;;26.21;50.73;101501.84;5018444;27;99898;-49
2022/07/21 09:32:26;;;;;;;0.90;0.90;;;;;;;26.29;50.76;101503.22;5025507;27;98152;-48
2022/07/21 09:35:01;;;;;;;0.90;0.90;;;;;;;26.31;50.41;101506.22;5025737;27;100671;-49
2022/07/21 09:37:27;;;;;;;1.20;1.10;;;;;;;26.32;50.34;101504.88;5026648;27;100065;-49
2022/07/21 09:39:55;;;;;;;1.10;1.00;;;;;;;26.29;50.56;101514.53;5027250;27;97017;-49
2022/07/21 09:42:25;;;;;;;0.80;0.80;;;;;;;26.25;50.58;101516.28;5026937;27;97780;-49
2022/07/21 09:44:59;;;;;;;0.87;0.87;;;;;;;26.27;50.05;101517.19;5019772;27;97106;-50
2022/07/21 09:47:29;;;;;;;0.70;0.70;;;;;;;26.40;49.98;101514.00;5023256;27;97781;-49
2022/07/21 09:49:56;;;;;;;1.00;0.80;;;;;;;26.50;49.88;101516.88;5021898;27;96892;-49
2022/07/21 09:52:33;;;;;;;0.80;0.80;;;;;;;26.55;49.52;101525.09;5023747;27;96870;-49
2022/07/21 09:55:18;;;;;;;1.00;1.00;;;;;;;26.59;49.61;101522.59;5022827;27;97970;-49
2022/07/21 09:57:44;;;;;;;0.80;0.70;;;;;;;26.66;49.26;101523.84;5019734;27;101629;-49
2022/07/21 10:00:16;;;;;;;0.80;0.70;;;;;;;26.68;49.07;101518.34;5025589;27;96988;-50
2022/07/21 10:02:43;;;;;;;1.63;1.20;;;;;;;26.70;49.13;101516.44;5026682;27;96658;-49
2022/07/21 10:05:11;;;;;;;1.00;1.00;;;;;;;26.71;48.95;101523.56;5022921;27;97176;-49
2022/07/21 10:07:39;;;;;;;0.70;0.70;;;;;;;26.77;49.00;101516.94;5025460;27;96948;-49
2022/07/21 10:10:05;;;;;;;0.77;0.77;;;;;;;26.85;49.20;101521.13;5025055;27;96755;-49
2022/07/21 10:12:32;;;;;;;1.67;0.90;;;;;;;26.92;48.99;101522.34;5020617;27;97043;-50
2022/07/21 10:14:58;;;;;;;0.80;0.80;;;;;;;26.88;48.87;101524.88;5022274;27;97586;-49
2022/07/21 10:17:25;;;;;;;1.03;0.93;;;;;;;26.90;48.85;101528.59;5025144;27;97876;-49
2022/07/21 10:20:03;;;;;;;0.80;0.80;;;;;;;26.90;48.71;101522.19;5024188;27;97051;-49
2022/07/21 10:22:34;;;;;;;1.10;1.10;;;;;;;26.86;48.43;101530.38;5024542;27;97140;-49
2022/07/21 10:25:01;;;;;;;1.20;1.20;;;;;;;26.80;48.64;101532.72;5022285;27;96776;-49
2022/07/21 10:27:26;;;;;;;1.27;1.17;;;;;;;26.80;48.70;101539.09;5024754;27;97606;-49
2022/07/21 10:29:54;;;;;;;1.97;1.87;;;;;;;26.80;48.57;101535.53;5025909;27;96976;-49
2022/07/21 10:32:22;;;;;;;2.00;1.90;;;;;;;26.91;48.54;101543.47;5006553;27;97084;-49
2022/07/21 10:34:49;;;;;;;2.23;2.13;;;;;;;26.90;48.13;101536.31;4983317;27;97345;-49
2022/07/21 10:37:39;;;;;;;3.10;2.90;;;;;;;26.81;47.82;101534.19;4995366;27;97195;-50
2022/07/21 10:40:06;;;;;;;3.30;3.10;;;;;;;26.78;48.00;101524.81;5022740;27;96918;-49
2022/07/21 10:42:32;;;;;;;3.10;2.90;;;;;;;26.83;48.08;101526.63;5025989;27;97082;-49
2022/07/21 10:44:57;;;;;;;3.73;3.50;;;;;;;26.87;48.03;101531.84;5021405;27;97023;-49
2022/07/21 10:47:30;;;;;;;3.57;3.37;;;;;;;26.91;47.87;101532.91;5022502;27;97038;-50
2022/07/21 10:50:00;;;;;;;3.90;3.60;;;;;;;26.95;47.79;101533.25;5019923;27;97053;-49
2022/07/21 10:52:34;;;;;;;3.73;3.50;;;;;;;26.97;47.30;101527.00;5025004;27;97295;-49
2022/07/21 10:55:29;;;;;;;4.33;4.00;;;;;;;26.94;47.30;101531.00;5025518;27;98613;-49
2022/07/21 10:58:14;;;;;;;3.67;3.37;;;;;;;27.07;47.42;101516.47;5023772;27;101178;-50
2022/07/21 11:00:50;;;;;;;4.30;4.00;;;;;;;27.35;47.17;101515.84;5023782;27;96917;-49
2022/07/21 11:03:41;;;;;;;3.90;3.63;;;;;;;27.53;46.66;101505.97;5019014;27;97009;-49
2022/07/21 11:06:09;;;;;;;4.53;4.13;;;;;;;27.77;46.65;101499.31;5036808;27;101946;-49
2022/07/21 11:09:03;;;;;;;4.13;3.83;;;;;;;27.90;46.08;101498.84;5020292;27;97596;-49
2022/07/21 11:11:31;;;;;;;3.50;3.20;;;;;;;28.00;45.63;101507.38;5024138;27;96870;-50
2022/07/21 11:14:21;;;;;;;4.40;4.10;;;;;;;28.11;44.74;101507.53;5024774;27;97158;-49
2022/07/21 11:16:49;;;;;;;3.93;3.73;;;;;;;28.13;45.20;101493.53;5019506;27;101810;-49
2022/07/21 11:19:39;;;;;;;3.87;3.63;;;;;;;28.26;44.74;101494.41;5025127;27;97044;-49
2022/07/21 11:22:12;;;;;;;3.30;3.10;;;;;;;28.39;44.75;101482.63;5021834;27;97001;-49
2022/07/21 11:24:40;;;;;;;3.80;3.50;;;;;;;28.55;44.32;101486.63;5013055;22;96667;-47
2022/07/21 11:27:12;;;;;;;4.30;4.00;;;;;;;28.66;43.70;101481.09;5003344;28;100383;-47